Time;durP1;ratioP1;P1;durP2;ratioP2;P2;SDS_P1;SDS_P2;PMS_P1;PMS_P2;Temp;Humidity;BMP_temperature;BMP_pressure;BME280_temperature;BME280_humidity;BME280_pressure;Samples;Min_cycle;Max_cycle;Signal;HPM_P1;HPM_P2
2021/06/12 00:00:37;;;;;;;2.47;1.80;;;;;;;;;;5043665;28;20039;-71
2021/06/12 00:03:21;;;;;;;2.38;1.50;;;;;;;;;;5043338;28;20090;-72
2021/06/12 00:06:06;;;;;;;2.63;1.52;;;;;;;;;;5044918;28;20056;-72
2021/06/12 00:08:51;;;;;;;2.63;1.63;;;;;;;;;;5029664;28;20084;-72
2021/06/12 00:11:36;;;;;;;2.55;1.70;;;;;;;;;;5043551;28;20075;-72
2021/06/12 00:14:21;;;;;;;2.25;1.60;;;;;;;;;;5043495;28;20451;-71
2021/06/12 00:17:05;;;;;;;2.78;1.77;;;;;;;;;;5029242;28;20044;-72
2021/06/12 00:19:50;;;;;;;3.13;1.52;;;;;;;;;;5029818;28;20094;-72
2021/06/12 00:22:34;;;;;;;3.67;1.40;;;;;;;;;;5043528;28;20718;-71
2021/06/12 00:25:21;;;;;;;2.33;1.60;;;;;;;;;;5043209;28;20576;-72
2021/06/12 00:28:05;;;;;;;2.30;1.90;;;;;;;;;;5043134;28;20039;-72
2021/06/12 00:30:50;;;;;;;2.15;1.50;;;;;;;;;;5043175;28;20893;-72
2021/06/12 00:33:35;;;;;;;2.10;1.50;;;;;;;;;;5042614;28;20106;-73
2021/06/12 00:36:20;;;;;;;2.50;1.60;;;;;;;;;;5028989;28;20098;-72
2021/06/12 00:39:05;;;;;;;2.03;1.40;;;;;;;;;;5043465;28;20036;-72
2021/06/12 00:41:49;;;;;;;2.63;1.38;;;;;;;;;;5023105;28;20071;-71
2021/06/12 00:44:34;;;;;;;1.92;1.50;;;;;;;;;;5025794;28;20140;-72
2021/06/12 00:47:18;;;;;;;2.17;1.48;;;;;;;;;;5028850;28;20039;-71
2021/06/12 00:50:03;;;;;;;1.88;1.38;;;;;;;;;;5014999;28;20091;-72
2021/06/12 00:52:48;;;;;;;2.60;1.30;;;;;;;;;;5026138;28;20043;-72
2021/06/12 00:55:33;;;;;;;2.88;1.60;;;;;;;;;;5044134;28;20040;-72
2021/06/12 00:58:18;;;;;;;2.15;1.33;;;;;;;;;;5031818;28;20606;-72
2021/06/12 01:01:03;;;;;;;2.83;1.30;;;;;;;;;;5042515;28;20493;-72
2021/06/12 01:03:48;;;;;;;3.08;1.42;;;;;;;;;;5028540;28;20031;-72
2021/06/12 01:06:33;;;;;;;2.75;1.58;;;;;;;;;;5028327;28;20512;-73
2021/06/12 01:09:23;;;;;;;2.88;1.65;;;;;;;;;;5041587;28;20465;-71
2021/06/12 01:12:11;;;;;;;2.08;1.50;;;;;;;;;;5029041;28;20453;-72
2021/06/12 01:14:57;;;;;;;2.80;1.30;;;;;;;;;;5042539;28;20055;-71
2021/06/12 01:17:48;;;;;;;2.55;1.40;;;;;;;;;;5042289;28;20036;-72
2021/06/12 01:20:51;;;;;;;2.10;1.40;;;;;;;;;;5042810;28;20120;-72
2021/06/12 01:23:54;;;;;;;1.92;1.40;;;;;;;;;;5033321;28;20220;-72
2021/06/12 01:26:57;;;;;;;2.30;1.33;;;;;;;;;;5042452;28;20086;-73
2021/06/12 01:29:51;;;;;;;2.13;1.40;;;;;;;;;;5041774;28;20048;-72
2021/06/12 01:32:36;;;;;;;1.80;1.20;;;;;;;;;;5042231;28;20552;-72
2021/06/12 01:35:41;;;;;;;2.47;1.50;;;;;;;;;;5042339;28;20040;-72
2021/06/12 01:38:26;;;;;;;2.25;1.50;;;;;;;;;;5042254;28;20094;-72
2021/06/12 01:41:12;;;;;;;2.40;1.20;;;;;;;;;;5027595;28;20063;-72
2021/06/12 01:43:57;;;;;;;2.88;1.40;;;;;;;;;;5028386;28;20060;-72
2021/06/12 01:46:41;;;;;;;2.80;1.50;;;;;;;;;;5043037;28;20056;-72
2021/06/12 01:49:26;;;;;;;2.63;1.48;;;;;;;;;;5044352;28;20087;-72
2021/06/12 01:52:10;;;;;;;1.70;1.30;;;;;;;;;;5041473;28;20163;-72
2021/06/12 01:54:56;;;;;;;2.17;1.35;;;;;;;;;;5031196;28;20087;-72
2021/06/12 01:57:42;;;;;;;2.08;1.23;;;;;;;;;;5048950;28;20063;-72
2021/06/12 02:00:27;;;;;;;2.17;1.30;;;;;;;;;;5034303;28;20095;-72
2021/06/12 02:03:12;;;;;;;2.25;1.35;;;;;;;;;;5045225;28;20122;-72
2021/06/12 02:05:56;;;;;;;2.83;1.42;;;;;;;;;;5048385;28;20580;-72
2021/06/12 02:08:41;;;;;;;2.05;1.30;;;;;;;;;;5048513;28;20550;-71
2021/06/12 02:11:26;;;;;;;2.25;1.30;;;;;;;;;;5048228;28;20044;-72
2021/06/12 02:14:11;;;;;;;2.22;1.50;;;;;;;;;;5048192;28;20079;-71
2021/06/12 02:16:56;;;;;;;2.00;1.48;;;;;;;;;;5048354;28;20722;-71
2021/06/12 02:19:41;;;;;;;2.00;1.20;;;;;;;;;;5030861;28;20048;-71
2021/06/12 02:22:25;;;;;;;2.08;1.50;;;;;;;;;;5047824;28;20772;-71
2021/06/12 02:25:14;;;;;;;2.60;1.67;;;;;;;;;;5048131;28;20036;-71
2021/06/12 02:28:01;;;;;;;2.78;1.60;;;;;;;;;;5031960;28;20086;-72
2021/06/12 02:30:47;;;;;;;1.92;1.33;;;;;;;;;;5043468;28;20088;-71
2021/06/12 02:33:32;;;;;;;2.35;1.42;;;;;;;;;;5024379;28;20079;-71
2021/06/12 02:36:19;;;;;;;3.17;1.40;;;;;;;;;;5047194;28;20504;-71
2021/06/12 02:39:05;;;;;;;3.17;1.40;;;;;;;;;;5047667;28;20063;-72
2021/06/12 02:41:50;;;;;;;2.40;1.42;;;;;;;;;;5026439;28;20421;-72
2021/06/12 02:44:34;;;;;;;2.08;1.35;;;;;;;;;;5047299;28;20055;-72
2021/06/12 02:47:19;;;;;;;2.28;1.40;;;;;;;;;;5033454;28;20063;-72
2021/06/12 02:50:04;;;;;;;2.15;1.30;;;;;;;;;;5038217;28;20075;-72
2021/06/12 02:52:49;;;;;;;2.72;1.40;;;;;;;;;;5044600;28;20071;-72
2021/06/12 02:55:36;;;;;;;1.60;1.10;;;;;;;;;;5033193;28;20035;-72
2021/06/12 02:58:22;;;;;;;1.92;1.20;;;;;;;;;;5047646;28;20068;-71
2021/06/12 03:01:06;;;;;;;2.95;1.50;;;;;;;;;;5047071;28;20492;-72
2021/06/12 03:03:51;;;;;;;3.20;1.60;;;;;;;;;;5028751;28;20447;-72
2021/06/12 03:06:36;;;;;;;3.58;1.50;;;;;;;;;;5048083;28;20048;-71
2021/06/12 03:09:22;;;;;;;3.97;1.60;;;;;;;;;;5033427;28;20044;-72
2021/06/12 03:12:07;;;;;;;3.13;1.35;;;;;;;;;;5046188;28;20112;-71
2021/06/12 03:14:52;;;;;;;2.30;1.45;;;;;;;;;;5046054;28;20079;-72
2021/06/12 03:17:36;;;;;;;5.07;1.50;;;;;;;;;;5033005;28;20098;-71
2021/06/12 03:20:21;;;;;;;2.88;1.40;;;;;;;;;;5046210;28;20043;-71
2021/06/12 03:23:06;;;;;;;3.45;1.40;;;;;;;;;;5046493;28;20488;-71
2021/06/12 03:25:51;;;;;;;2.63;1.25;;;;;;;;;;5044861;28;20445;-71
2021/06/12 03:28:36;;;;;;;2.13;1.27;;;;;;;;;;5045696;28;20036;-71
2021/06/12 03:31:21;;;;;;;3.45;1.50;;;;;;;;;;5046679;28;20098;-71
2021/06/12 03:34:06;;;;;;;2.20;1.35;;;;;;;;;;5043141;28;20106;-71
2021/06/12 03:36:51;;;;;;;3.10;1.40;;;;;;;;;;5046521;28;20047;-71
2021/06/12 03:39:35;;;;;;;3.38;1.42;;;;;;;;;;5032414;28;20040;-71
2021/06/12 03:42:20;;;;;;;3.00;1.35;;;;;;;;;;5046096;28;20590;-71
2021/06/12 03:45:06;;;;;;;2.50;1.40;;;;;;;;;;5046768;28;20107;-71
2021/06/12 03:47:51;;;;;;;3.05;1.58;;;;;;;;;;5046330;28;20098;-71
2021/06/12 03:50:36;;;;;;;2.97;1.38;;;;;;;;;;5043483;28;20420;-71
2021/06/12 03:53:21;;;;;;;3.22;1.50;;;;;;;;;;5048014;28;20056;-71
2021/06/12 03:56:06;;;;;;;2.40;1.55;;;;;;;;;;5050043;28;20124;-71
2021/06/12 03:58:51;;;;;;;2.10;1.50;;;;;;;;;;5030596;28;20044;-71
2021/06/12 04:01:35;;;;;;;1.90;1.40;;;;;;;;;;5045621;28;20047;-72
2021/06/12 04:04:21;;;;;;;2.10;1.23;;;;;;;;;;5031518;28;20126;-71
2021/06/12 04:07:06;;;;;;;2.13;1.42;;;;;;;;;;5034316;28;20445;-71
2021/06/12 04:09:51;;;;;;;4.03;1.75;;;;;;;;;;5032664;28;20043;-71
2021/06/12 04:12:35;;;;;;;3.03;1.65;;;;;;;;;;5045096;28;20853;-70
2021/06/12 04:15:20;;;;;;;2.00;1.25;;;;;;;;;;5046493;28;20435;-70
2021/06/12 04:18:07;;;;;;;2.08;1.30;;;;;;;;;;5031357;28;20059;-70
2021/06/12 04:20:52;;;;;;;2.10;1.40;;;;;;;;;;5031067;28;20043;-70
2021/06/12 04:23:37;;;;;;;2.13;1.40;;;;;;;;;;5044776;28;20489;-70
2021/06/12 04:26:21;;;;;;;2.60;1.63;;;;;;;;;;5030987;28;20063;-70
2021/06/12 04:29:05;;;;;;;3.13;1.55;;;;;;;;;;5030729;28;20679;-70
2021/06/12 04:31:50;;;;;;;1.88;1.25;;;;;;;;;;5045572;28;20884;-70
2021/06/12 04:34:34;;;;;;;3.13;1.50;;;;;;;;;;5030926;28;20090;-71
2021/06/12 04:37:19;;;;;;;2.22;1.60;;;;;;;;;;5031184;28;20090;-71
2021/06/12 04:40:04;;;;;;;1.70;1.10;;;;;;;;;;5040957;28;20036;-71
2021/06/12 04:42:49;;;;;;;3.28;1.40;;;;;;;;;;5045420;28;20043;-70
2021/06/12 04:45:33;;;;;;;2.28;1.20;;;;;;;;;;5044990;28;20044;-70
2021/06/12 04:48:18;;;;;;;2.33;1.40;;;;;;;;;;5044104;28;20073;-70
2021/06/12 04:51:03;;;;;;;2.85;1.50;;;;;;;;;;5024946;28;20692;-71
2021/06/12 04:53:47;;;;;;;2.03;1.38;;;;;;;;;;5038204;28;20456;-71
2021/06/12 04:56:32;;;;;;;2.20;1.25;;;;;;;;;;5029195;28;20051;-71
2021/06/12 04:59:16;;;;;;;1.88;1.08;;;;;;;;;;5030644;28;20090;-72
2021/06/12 05:02:01;;;;;;;3.50;1.52;;;;;;;;;;5027800;28;20079;-70
2021/06/12 05:04:45;;;;;;;2.75;1.40;;;;;;;;;;5041521;28;20144;-71
2021/06/12 05:07:30;;;;;;;2.13;1.33;;;;;;;;;;5041547;28;20086;-71
2021/06/12 05:10:15;;;;;;;2.22;1.30;;;;;;;;;;5043245;28;20044;-72
2021/06/12 05:12:59;;;;;;;2.50;1.45;;;;;;;;;;5043562;28;20929;-70
2021/06/12 05:15:44;;;;;;;2.08;1.20;;;;;;;;;;5043636;28;20040;-71
2021/06/12 05:18:38;;;;;;;2.10;1.30;;;;;;;;;;5041652;28;20623;-71
2021/06/12 05:21:23;;;;;;;1.92;1.00;;;;;;;;;;5042705;28;20035;-72
2021/06/12 05:24:08;;;;;;;2.38;1.30;;;;;;;;;;5041722;28;20508;-71
2021/06/12 05:26:52;;;;;;;1.95;1.30;;;;;;;;;;5043675;28;20083;-72
2021/06/12 05:29:37;;;;;;;2.13;1.17;;;;;;;;;;5045852;28;20117;-72
2021/06/12 05:32:21;;;;;;;2.50;1.30;;;;;;;;;;5047053;28;20055;-72
2021/06/12 05:35:07;;;;;;;2.83;1.27;;;;;;;;;;5046314;28;20525;-72
2021/06/12 05:37:51;;;;;;;1.50;1.10;;;;;;;;;;5045779;28;20044;-72
2021/06/12 05:40:36;;;;;;;2.70;1.23;;;;;;;;;;5045689;28;20040;-72
2021/06/12 05:43:20;;;;;;;1.80;1.30;;;;;;;;;;5037554;28;20102;-72
2021/06/12 05:46:05;;;;;;;2.28;1.13;;;;;;;;;;5036605;28;20145;-72
2021/06/12 05:48:50;;;;;;;2.08;1.30;;;;;;;;;;5046625;28;20516;-72
2021/06/12 05:51:34;;;;;;;1.88;1.20;;;;;;;;;;5032284;28;20083;-72
2021/06/12 05:54:19;;;;;;;2.30;1.20;;;;;;;;;;5045457;28;20539;-72
2021/06/12 05:57:04;;;;;;;1.70;1.20;;;;;;;;;;5045676;28;20577;-72
2021/06/12 05:59:49;;;;;;;1.95;1.33;;;;;;;;;;5045455;28;20035;-72
2021/06/12 06:02:33;;;;;;;2.25;1.20;;;;;;;;;;5045272;28;20040;-72
2021/06/12 06:05:18;;;;;;;2.83;1.40;;;;;;;;;;5045362;28;20090;-71
2021/06/12 06:08:03;;;;;;;3.33;1.40;;;;;;;;;;5046305;28;20170;-72
2021/06/12 06:10:47;;;;;;;1.65;1.25;;;;;;;;;;5029980;28;20794;-72
2021/06/12 06:13:38;;;;;;;2.17;1.27;;;;;;;;;;5038174;28;20055;-71
2021/06/12 06:16:23;;;;;;;2.13;1.38;;;;;;;;;;5031554;28;20056;-71
2021/06/12 06:19:09;;;;;;;1.90;1.30;;;;;;;;;;5045790;28;20263;-72
2021/06/12 06:21:54;;;;;;;1.67;1.27;;;;;;;;;;5044746;28;20040;-72
2021/06/12 06:24:38;;;;;;;1.98;1.30;;;;;;;;;;5044971;28;20103;-72
2021/06/12 06:27:24;;;;;;;2.60;1.30;;;;;;;;;;5045017;28;20079;-71
2021/06/12 06:30:09;;;;;;;2.10;1.20;;;;;;;;;;5051141;28;20511;-72
2021/06/12 06:32:54;;;;;;;3.47;1.30;;;;;;;;;;5059373;28;20592;-71
2021/06/12 06:35:38;;;;;;;2.08;1.20;;;;;;;;;;5055982;28;20895;-72
2021/06/12 06:38:23;;;;;;;2.53;1.20;;;;;;;;;;5054048;28;20095;-74
2021/06/12 06:41:08;;;;;;;1.48;1.23;;;;;;;;;;5038328;28;20150;-72
2021/06/12 06:43:53;;;;;;;1.92;1.33;;;;;;;;;;5031249;28;20496;-73
2021/06/12 06:46:37;;;;;;;7.43;1.90;;;;;;;;;;5044716;28;20156;-72
2021/06/12 06:49:22;;;;;;;2.40;1.25;;;;;;;;;;5044959;28;20099;-72
2021/06/12 06:52:07;;;;;;;1.70;1.10;;;;;;;;;;5030855;28;20517;-72
2021/06/12 06:54:52;;;;;;;2.75;1.15;;;;;;;;;;5030492;28;20044;-72
2021/06/12 06:57:36;;;;;;;2.15;1.30;;;;;;;;;;5048395;28;20545;-72
2021/06/12 07:00:26;;;;;;;2.78;1.20;;;;;;;;;;5034221;28;20512;-72
2021/06/12 07:03:11;;;;;;;0.98;0.80;;;;;;;;;;5045757;28;20059;-72
2021/06/12 07:05:55;;;;;;;1.55;1.13;;;;;;;;;;5043162;28;20039;-72
2021/06/12 07:08:40;;;;;;;1.30;1.00;;;;;;;;;;5030261;28;20508;-72
2021/06/12 07:11:25;;;;;;;1.75;1.00;;;;;;;;;;5045018;28;20158;-72
2021/06/12 07:14:09;;;;;;;3.10;1.20;;;;;;;;;;5044348;28;20479;-72
2021/06/12 07:16:54;;;;;;;2.00;1.13;;;;;;;;;;5044780;28;20099;-73
2021/06/12 07:19:39;;;;;;;1.70;1.08;;;;;;;;;;5042130;28;20075;-72
2021/06/12 07:22:24;;;;;;;1.50;1.00;;;;;;;;;;5012031;28;20040;-72
2021/06/12 07:25:09;;;;;;;1.63;1.10;;;;;;;;;;5030878;28;20043;-73
2021/06/12 07:27:53;;;;;;;1.65;1.00;;;;;;;;;;5046019;28;20040;-72
2021/06/12 07:30:42;;;;;;;2.17;1.25;;;;;;;;;;5045516;28;20900;-72
2021/06/12 07:33:26;;;;;;;2.65;1.13;;;;;;;;;;5045716;28;20076;-72
2021/06/12 07:36:11;;;;;;;1.73;0.98;;;;;;;;;;5030954;28;20579;-76
2021/06/12 07:38:55;;;;;;;1.85;1.27;;;;;;;;;;5044989;28;20093;-72
2021/06/12 07:41:40;;;;;;;4.10;1.20;;;;;;;;;;5045635;28;20083;-71
2021/06/12 07:44:24;;;;;;;2.20;1.05;;;;;;;;;;5044956;28;20083;-72
2021/06/12 07:47:09;;;;;;;1.67;1.10;;;;;;;;;;5030559;28;20554;-72
2021/06/12 07:49:54;;;;;;;2.35;1.15;;;;;;;;;;5044018;28;20044;-71
2021/06/12 07:52:38;;;;;;;2.22;1.10;;;;;;;;;;5036819;28;20091;-72
2021/06/12 07:55:23;;;;;;;3.05;1.20;;;;;;;;;;5043415;28;20047;-71
2021/06/12 07:58:07;;;;;;;2.35;1.00;;;;;;;;;;5043679;28;20409;-72
2021/06/12 08:00:52;;;;;;;1.42;1.00;;;;;;;;;;5043211;28;20040;-72
2021/06/12 08:03:36;;;;;;;2.08;1.20;;;;;;;;;;5043794;28;20036;-72
2021/06/12 08:06:21;;;;;;;2.75;1.20;;;;;;;;;;5029274;28;20043;-72
2021/06/12 08:09:06;;;;;;;1.80;1.10;;;;;;;;;;5042259;28;20071;-72
2021/06/12 08:11:51;;;;;;;1.70;1.35;;;;;;;;;;5042331;28;20885;-72
2021/06/12 08:14:35;;;;;;;2.25;1.10;;;;;;;;;;5043271;28;20560;-72
2021/06/12 08:17:20;;;;;;;2.08;1.10;;;;;;;;;;5044026;28;20036;-72
2021/06/12 08:20:05;;;;;;;1.65;1.30;;;;;;;;;;5042289;28;20052;-72
2021/06/12 08:22:49;;;;;;;1.58;1.15;;;;;;;;;;5021844;28;20115;-72
2021/06/12 08:25:34;;;;;;;2.03;1.40;;;;;;;;;;5043145;28;20059;-72
2021/06/12 08:28:18;;;;;;;2.92;1.20;;;;;;;;;;5028333;28;20043;-73
2021/06/12 08:31:05;;;;;;;1.48;1.20;;;;;;;;;;5042463;28;20512;-72
2021/06/12 08:33:50;;;;;;;2.55;1.38;;;;;;;;;;5043480;28;20521;-72
2021/06/12 08:36:35;;;;;;;3.33;1.20;;;;;;;;;;5041108;28;20140;-72
2021/06/12 08:39:20;;;;;;;1.70;1.27;;;;;;;;;;5028792;28;20830;-71
2021/06/12 08:42:05;;;;;;;2.63;1.50;;;;;;;;;;5043679;28;20134;-72
2021/06/12 08:44:50;;;;;;;1.83;1.25;;;;;;;;;;5042028;28;20071;-72
2021/06/12 08:47:36;;;;;;;2.15;1.50;;;;;;;;;;5042410;28;20523;-72
2021/06/12 08:50:23;;;;;;;1.92;1.30;;;;;;;;;;5025883;28;20584;-72
2021/06/12 08:53:08;;;;;;;2.15;1.30;;;;;;;;;;5037857;28;20595;-73
2021/06/12 08:55:53;;;;;;;2.00;1.30;;;;;;;;;;5041830;28;20075;-72
2021/06/12 08:58:37;;;;;;;2.55;1.50;;;;;;;;;;5028517;28;20047;-72
2021/06/12 09:01:22;;;;;;;2.45;1.73;;;;;;;;;;5027191;28;20036;-72
2021/06/12 09:04:06;;;;;;;2.20;1.70;;;;;;;;;;5042867;28;20676;-72
2021/06/12 09:06:53;;;;;;;2.15;1.23;;;;;;;;;;5028051;28;20044;-71
2021/06/12 09:09:41;;;;;;;2.30;1.48;;;;;;;;;;5040877;28;20051;-72
2021/06/12 09:12:45;;;;;;;2.00;1.45;;;;;;;;;;5039976;28;20163;-71
2021/06/12 09:15:30;;;;;;;1.83;1.40;;;;;;;;;;5027498;28;20048;-73
2021/06/12 09:18:15;;;;;;;2.10;1.50;;;;;;;;;;5028725;28;20079;-71
2021/06/12 09:20:59;;;;;;;1.60;1.40;;;;;;;;;;5023410;28;20398;-72
2021/06/12 09:23:44;;;;;;;2.30;1.40;;;;;;;;;;5042483;28;20028;-73
2021/06/12 09:26:39;;;;;;;4.35;1.80;;;;;;;;;;5042949;28;20930;-72
2021/06/12 09:29:34;;;;;;;1.30;1.20;;;;;;;;;;5037810;28;20036;-73
2021/06/12 09:32:19;;;;;;;2.30;1.52;;;;;;;;;;5034172;28;20079;-72
2021/06/12 09:35:05;;;;;;;2.10;1.60;;;;;;;;;;5041684;28;20052;-76
2021/06/12 09:37:50;;;;;;;2.20;1.30;;;;;;;;;;5028627;28;20083;-72
2021/06/12 09:40:34;;;;;;;2.13;1.60;;;;;;;;;;5041707;28;20035;-72
2021/06/12 09:43:28;;;;;;;1.90;1.30;;;;;;;;;;5041281;28;20508;-72
2021/06/12 09:46:32;;;;;;;2.13;1.40;;;;;;;;;;5036274;28;20040;-72
2021/06/12 09:49:17;;;;;;;1.95;1.20;;;;;;;;;;5042227;28;20091;-73
2021/06/12 09:52:08;;;;;;;2.00;1.40;;;;;;;;;;5041976;28;20074;-72
2021/06/12 09:54:52;;;;;;;2.25;1.38;;;;;;;;;;5043651;28;20040;-72
2021/06/12 09:57:47;;;;;;;1.65;1.25;;;;;;;;;;5026965;28;20121;-72
2021/06/12 10:00:33;;;;;;;2.05;1.50;;;;;;;;;;5027888;28;20047;-72
2021/06/12 10:03:18;;;;;;;1.90;1.50;;;;;;;;;;5027617;28;20044;-72
2021/06/12 10:06:29;;;;;;;3.35;1.30;;;;;;;;;;5042708;28;20417;-71
2021/06/12 10:09:13;;;;;;;2.38;1.50;;;;;;;;;;5039716;28;20106;-71
2021/06/12 10:11:58;;;;;;;2.22;1.50;;;;;;;;;;5045352;28;20494;-72
2021/06/12 10:14:43;;;;;;;2.22;1.48;;;;;;;;;;5029027;28;20088;-73
2021/06/12 10:17:28;;;;;;;2.85;1.30;;;;;;;;;;5041234;28;20128;-72
2021/06/12 10:20:13;;;;;;;1.98;1.33;;;;;;;;;;5034155;28;20509;-72
2021/06/12 10:22:57;;;;;;;2.35;1.70;;;;;;;;;;5029450;28;20052;-72
2021/06/12 10:25:42;;;;;;;2.25;1.63;;;;;;;;;;5031513;28;20040;-75
2021/06/12 10:28:27;;;;;;;2.53;1.60;;;;;;;;;;5039067;28;20052;-73
2021/06/12 10:31:12;;;;;;;2.70;1.30;;;;;;;;;;5047259;28;20043;-72
2021/06/12 10:33:56;;;;;;;2.97;1.50;;;;;;;;;;5045315;28;20079;-71
2021/06/12 10:36:43;;;;;;;1.60;1.40;;;;;;;;;;5045018;28;20039;-72
2021/06/12 10:39:28;;;;;;;2.28;1.48;;;;;;;;;;5044845;28;20063;-73
2021/06/12 10:42:13;;;;;;;2.50;1.40;;;;;;;;;;5045572;28;20092;-72
2021/06/12 10:44:58;;;;;;;1.95;1.50;;;;;;;;;;5044890;28;20159;-71
2021/06/12 10:47:44;;;;;;;2.22;1.60;;;;;;;;;;5044641;28;20072;-71
2021/06/12 10:50:29;;;;;;;2.20;1.40;;;;;;;;;;5045680;28;20074;-75
2021/06/12 10:53:15;;;;;;;2.75;1.42;;;;;;;;;;5043745;28;20052;-71
2021/06/12 10:56:00;;;;;;;2.25;1.80;;;;;;;;;;5044778;28;20043;-71
2021/06/12 10:58:46;;;;;;;2.30;1.60;;;;;;;;;;5031807;28;20125;-71
2021/06/12 11:01:30;;;;;;;1.77;1.48;;;;;;;;;;5044063;28;20052;-71
2021/06/12 11:04:17;;;;;;;3.05;1.63;;;;;;;;;;5027930;28;20040;-72
2021/06/12 11:07:06;;;;;;;2.13;1.50;;;;;;;;;;5027071;28;20051;-72
2021/06/12 11:09:51;;;;;;;1.85;1.60;;;;;;;;;;5030703;28;20036;-72
2021/06/12 11:12:36;;;;;;;2.05;1.50;;;;;;;;;;5049459;28;20043;-72
2021/06/12 11:15:24;;;;;;;4.10;1.60;;;;;;;;;;5044426;28;20047;-72
2021/06/12 11:18:12;;;;;;;2.08;1.60;;;;;;;;;;5055742;28;20094;-71
2021/06/12 11:21:00;;;;;;;2.40;1.55;;;;;;;;;;5057830;28;20051;-73
2021/06/12 11:23:53;;;;;;;2.38;1.52;;;;;;;;;;5049253;28;20534;-71
2021/06/12 11:26:57;;;;;;;1.85;1.45;;;;;;;;;;5048773;28;20039;-71
2021/06/12 11:30:01;;;;;;;2.78;1.80;;;;;;;;;;5050451;28;20047;-72
2021/06/12 11:32:59;;;;;;;2.35;1.50;;;;;;;;;;5041985;28;20047;-72
2021/06/12 11:35:51;;;;;;;3.25;1.90;;;;;;;;;;5047344;28;20070;-72
2021/06/12 11:38:36;;;;;;;;;;;;;;;;;;5047398;28;20096;-72
2021/06/12 11:41:20;;;;;;;3.17;1.60;;;;;;;;;;5038240;28;20013;-72
2021/06/12 11:44:05;;;;;;;5.05;2.17;;;;;;;;;;5037758;28;20047;-72
2021/06/12 11:46:50;;;;;;;4.53;2.10;;;;;;;;;;5033431;28;20094;-72
2021/06/12 11:49:34;;;;;;;3.42;1.90;;;;;;;;;;5031027;28;20094;-73
2021/06/12 11:52:19;;;;;;;3.40;2.00;;;;;;;;;;5035256;28;20389;-73
2021/06/12 11:55:17;;;;;;;4.30;2.10;;;;;;;;;;5027691;28;20081;-73
2021/06/12 11:58:02;;;;;;;3.83;2.10;;;;;;;;;;5037373;28;20045;-73
2021/06/12 12:00:47;;;;;;;4.03;2.33;;;;;;;;;;5046291;28;20093;-73
2021/06/12 12:03:31;;;;;;;4.18;1.90;;;;;;;;;;5027887;28;20090;-73
2021/06/12 12:06:17;;;;;;;2.42;1.90;;;;;;;;;;5044775;28;20048;-74
2021/06/12 12:09:02;;;;;;;4.80;1.95;;;;;;;;;;5049565;28;20089;-74
2021/06/12 12:11:51;;;;;;;3.00;1.95;;;;;;;;;;5054393;28;20431;-75
2021/06/12 12:14:39;;;;;;;3.08;1.80;;;;;;;;;;5041695;28;20039;-74
2021/06/12 12:17:24;;;;;;;2.53;2.20;;;;;;;;;;5043952;28;20076;-74
2021/06/12 12:20:09;;;;;;;3.53;2.10;;;;;;;;;;5046899;28;20038;-74
2021/06/12 12:22:55;;;;;;;6.25;2.10;;;;;;;;;;5029329;28;20036;-74
2021/06/12 12:25:39;;;;;;;4.43;2.30;;;;;;;;;;5029610;28;20052;-74
2021/06/12 12:28:26;;;;;;;2.53;1.90;;;;;;;;;;5052103;28;20063;-74
2021/06/12 12:31:11;;;;;;;5.85;2.30;;;;;;;;;;5043549;28;20141;-74
2021/06/12 12:33:56;;;;;;;3.33;1.73;;;;;;;;;;5032834;28;20043;-74
2021/06/12 12:36:45;;;;;;;2.83;2.10;;;;;;;;;;5026872;28;20039;-74
2021/06/12 12:39:40;;;;;;;2.85;2.13;;;;;;;;;;5064077;28;20090;-74
2021/06/12 12:42:25;;;;;;;3.05;2.30;;;;;;;;;;5028536;28;20133;-74
2021/06/12 12:45:10;;;;;;;3.03;2.05;;;;;;;;;;5044969;28;20508;-74
2021/06/12 12:47:54;;;;;;;3.10;1.95;;;;;;;;;;5050067;28;20090;-74
2021/06/12 12:50:39;;;;;;;4.35;2.15;;;;;;;;;;5042406;28;20539;-74
2021/06/12 12:53:23;;;;;;;2.40;2.10;;;;;;;;;;5042014;28;20722;-74
2021/06/12 12:56:09;;;;;;;2.65;2.25;;;;;;;;;;5049747;28;20040;-74
2021/06/12 12:58:56;;;;;;;3.75;2.10;;;;;;;;;;5037065;28;20048;-75
2021/06/12 13:01:49;;;;;;;2.55;2.13;;;;;;;;;;5041642;28;20508;-74
2021/06/12 13:04:34;;;;;;;4.10;2.38;;;;;;;;;;5032904;28;21053;-74
2021/06/12 13:07:19;;;;;;;4.03;2.50;;;;;;;;;;5031572;28;20082;-75
2021/06/12 13:10:05;;;;;;;2.75;2.10;;;;;;;;;;5029493;28;21815;-74
2021/06/12 13:12:56;;;;;;;4.93;2.60;;;;;;;;;;5047713;28;20120;-73
2021/06/12 13:15:53;;;;;;;3.33;2.55;;;;;;;;;;5042813;28;20086;-74
2021/06/12 13:18:38;;;;;;;3.28;2.20;;;;;;;;;;5045219;28;20051;-73
2021/06/12 13:21:22;;;;;;;3.63;2.40;;;;;;;;;;5046542;28;20091;-73
2021/06/12 13:24:07;;;;;;;4.85;2.60;;;;;;;;;;5030346;28;20597;-73
2021/06/12 13:26:52;;;;;;;2.97;2.25;;;;;;;;;;5042733;28;20082;-75
2021/06/12 13:29:36;;;;;;;3.17;2.45;;;;;;;;;;5032475;28;20120;-75
2021/06/12 13:32:25;;;;;;;3.72;2.63;;;;;;;;;;5043224;28;20052;-75
2021/06/12 13:35:22;;;;;;;2.70;2.40;;;;;;;;;;5027310;28;20140;-74
2021/06/12 13:38:14;;;;;;;2.85;2.40;;;;;;;;;;5039237;28;20036;-74
2021/06/12 13:41:06;;;;;;;3.42;2.60;;;;;;;;;;5043452;28;20056;-74
2021/06/12 13:43:51;;;;;;;3.13;2.75;;;;;;;;;;5042200;28;20040;-75
2021/06/12 13:46:36;;;;;;;3.40;2.58;;;;;;;;;;5056550;28;20117;-74
2021/06/12 13:49:20;;;;;;;3.10;2.70;;;;;;;;;;5054586;28;20047;-74
2021/06/12 13:52:05;;;;;;;3.30;3.00;;;;;;;;;;5051806;28;20059;-74
2021/06/12 13:54:50;;;;;;;3.20;2.80;;;;;;;;;;5057516;28;20040;-74
2021/06/12 13:57:34;;;;;;;3.83;3.08;;;;;;;;;;5047246;28;20044;-75
2021/06/12 14:00:19;;;;;;;3.88;2.92;;;;;;;;;;5048866;28;20044;-75
2021/06/12 14:03:04;;;;;;;4.88;3.40;;;;;;;;;;5048191;28;20177;-75
2021/06/12 14:05:49;;;;;;;4.03;3.30;;;;;;;;;;5054362;28;20102;-75
2021/06/12 14:08:34;;;;;;;3.88;3.15;;;;;;;;;;5031369;28;20381;-75
2021/06/12 14:11:18;;;;;;;4.15;3.20;;;;;;;;;;5045544;28;20098;-74
2021/06/12 14:14:04;;;;;;;3.47;3.08;;;;;;;;;;5055917;28;20640;-74
2021/06/12 14:16:48;;;;;;;3.30;3.00;;;;;;;;;;5044338;28;20039;-74
2021/06/12 14:19:36;;;;;;;4.35;3.20;;;;;;;;;;5059261;28;20420;-74
2021/06/12 14:22:21;;;;;;;3.58;3.25;;;;;;;;;;5050524;28;20213;-74
2021/06/12 14:25:06;;;;;;;4.10;3.15;;;;;;;;;;5064351;28;20043;-76
2021/06/12 14:27:51;;;;;;;3.58;3.10;;;;;;;;;;5065560;28;20042;-74
2021/06/12 14:30:36;;;;;;;3.65;3.00;;;;;;;;;;5047270;28;20114;-74
2021/06/12 14:33:21;;;;;;;3.53;3.22;;;;;;;;;;5043832;28;20099;-75
2021/06/12 14:36:06;;;;;;;4.18;3.22;;;;;;;;;;5042557;28;20040;-74
2021/06/12 14:38:50;;;;;;;3.40;3.10;;;;;;;;;;5031036;28;20129;-74
2021/06/12 14:41:39;;;;;;;3.35;3.05;;;;;;;;;;5031557;28;20072;-74
2021/06/12 14:44:26;;;;;;;4.28;3.35;;;;;;;;;;5047057;28;20575;-74
2021/06/12 14:47:10;;;;;;;4.25;3.40;;;;;;;;;;5049798;28;20502;-74
2021/06/12 14:49:55;;;;;;;4.70;3.30;;;;;;;;;;5065007;28;20094;-74
2021/06/12 14:52:39;;;;;;;3.50;3.08;;;;;;;;;;5045559;28;20051;-74
2021/06/12 14:55:24;;;;;;;3.50;3.20;;;;;;;;;;5029805;28;20079;-74
2021/06/12 14:58:08;;;;;;;3.70;3.35;;;;;;;;;;5029287;28;20040;-74
2021/06/12 15:00:53;;;;;;;3.33;3.03;;;;;;;;;;5036074;28;20047;-74
2021/06/12 15:03:37;;;;;;;4.20;3.72;;;;;;;;;;5056592;28;20059;-74
2021/06/12 15:06:22;;;;;;;3.50;3.17;;;;;;;;;;5043624;28;20462;-73
2021/06/12 15:09:07;;;;;;;4.20;3.80;;;;;;;;;;5024764;28;20129;-73
2021/06/12 15:11:51;;;;;;;3.80;3.50;;;;;;;;;;5038744;28;20083;-74
2021/06/12 15:14:36;;;;;;;3.88;3.45;;;;;;;;;;5040273;28;20513;-75
2021/06/12 15:17:21;;;;;;;4.80;3.70;;;;;;;;;;5010602;28;20588;-74
2021/06/12 15:20:06;;;;;;;3.95;3.28;;;;;;;;;;5016147;28;20106;-74
2021/06/12 15:22:50;;;;;;;4.97;3.88;;;;;;;;;;5035294;28;20771;-74
2021/06/12 15:25:35;;;;;;;4.07;3.33;;;;;;;;;;5029626;28;20055;-74
2021/06/12 15:28:23;;;;;;;3.83;3.40;;;;;;;;;;5042339;28;20508;-74
2021/06/12 15:31:08;;;;;;;3.42;3.13;;;;;;;;;;5043608;28;20425;-75
2021/06/12 15:33:53;;;;;;;3.80;3.35;;;;;;;;;;5044287;28;20421;-74
2021/06/12 15:36:38;;;;;;;4.50;3.60;;;;;;;;;;5029950;28;20125;-74
2021/06/12 15:39:23;;;;;;;3.35;3.05;;;;;;;;;;5043567;28;20452;-76
2021/06/12 15:42:08;;;;;;;3.88;3.40;;;;;;;;;;5042955;28;20130;-73
2021/06/12 15:44:52;;;;;;;3.58;3.00;;;;;;;;;;5043833;28;20039;-74
2021/06/12 15:47:37;;;;;;;4.28;3.40;;;;;;;;;;5024398;28;20044;-73
2021/06/12 15:50:21;;;;;;;3.75;3.45;;;;;;;;;;5044045;28;20123;-73
2021/06/12 15:53:06;;;;;;;3.28;2.97;;;;;;;;;;5049648;28;20055;-73
2021/06/12 15:55:51;;;;;;;6.15;3.10;;;;;;;;;;5039787;28;20062;-72
2021/06/12 15:58:36;;;;;;;4.35;2.78;;;;;;;;;;5038238;28;20043;-74
2021/06/12 16:01:20;;;;;;;3.92;2.70;;;;;;;;;;5052993;28;20040;-73
2021/06/12 16:04:05;;;;;;;3.30;2.75;;;;;;;;;;5042959;28;20063;-77
2021/06/12 16:06:50;;;;;;;3.92;2.70;;;;;;;;;;5044009;28;20043;-72
2021/06/12 16:09:34;;;;;;;3.33;2.92;;;;;;;;;;5046992;28;20082;-73
2021/06/12 16:12:19;;;;;;;3.10;2.80;;;;;;;;;;5044470;28;20035;-73
2021/06/12 16:15:04;;;;;;;3.55;2.72;;;;;;;;;;5041802;28;20103;-73
2021/06/12 16:17:49;;;;;;;4.38;2.78;;;;;;;;;;5042325;28;20086;-73
2021/06/12 16:20:34;;;;;;;3.10;2.80;;;;;;;;;;5053736;28;20038;-73
2021/06/12 16:23:19;;;;;;;3.25;2.53;;;;;;;;;;5053794;28;20044;-73
2021/06/12 16:26:04;;;;;;;3.42;2.80;;;;;;;;;;5045978;28;20496;-73
2021/06/12 16:28:48;;;;;;;3.00;2.65;;;;;;;;;;5048185;28;20082;-74
2021/06/12 16:31:33;;;;;;;3.40;2.60;;;;;;;;;;5054269;28;20059;-72
2021/06/12 16:34:20;;;;;;;3.58;2.42;;;;;;;;;;5051559;28;20058;-76